• Join FlightAware (Why Join?)
  • Login
  • US Flag 
06:58PM EST


 

Airport Tracker/Info


-or-


 

Live Flight TrackerFlight Track Log ✈ UAL582 ✈ 30-Jun-2013 ✈ KORD - KTPA

Flight Track Log - Related Links

Times and Time Zones

All times are in EDT time to prevent confusion due to time zone crossing. See the UAL582 flight status page for this flight to view local times or setup timezone preferences in your user account.

Time Position Orientation Groundspeed Altitude Reporting Facility
EDT Latitude Longitude Course Direction KTS MPH feet Rate Location/Type
09:25PM 41.9667 -87.8667 187° South 176 203 1,900  Level Chicago TRACON
09:26PM 41.9167 -87.8167 143° Southeast 243 280 3,900 1,380 Climbing Chicago TRACON
09:27PM 41.6728 -87.7639 180° South  Level Estimated
09:27PM 41.8464 -87.7853 162° South 273 314 5,000  Level Chicago Center
09:28PM 41.5698 -87.7166 176° South  Level Estimated
09:28PM 41.7508 -87.7933 184° South 289 333 8,200  Level Chicago Center
09:29PM 41.4820 -87.8027 216° Southwest  Level FlightAware Approximate
09:29PM 41.6689 -87.8144 191° South 300 345 11,400  Level Chicago Center
09:30PM 41.3792 -87.7546 187° South  Level Estimated
09:30PM 41.5844 -87.8356 191° South 307 353 13,500  Level Chicago Center
09:31PM 41.4833 -87.8603 190° South 362 417 14,900 1,860 Climbing Chicago Center
09:32PM 41.3753 -87.8811 188° South 384 442 17,400 2,220 Climbing Chicago Center
09:33PM 41.2644 -87.8917 184° South 393 452 19,600 1,860 Climbing Chicago Center
09:34PM 41.1517 -87.8897 179° South 404 465 21,300 1,620 Climbing Chicago Center
09:35PM 41.0364 -87.8869 179° South 412 474 23,000 1,740 Climbing Chicago Center
09:36PM 40.8931 -87.8808 178° South 428 493 24,900 1,560 Climbing Chicago Center
09:37PM 40.7725 -87.8772 179° South 433 498 26,300 1,260 Climbing Chicago Center
09:38PM 40.6497 -87.8739 179° South 441 507 27,600 1,200 Climbing Chicago Center
09:39PM 40.5250 -87.8694 178° South 449 517 28,800 1,140 Climbing Chicago Center
09:40PM 40.3967 -87.8656 179° South 459 528 30,000 1,260 Climbing Chicago Center
09:41PM 40.2683 -87.8622 179° South 463 533 31,500 960 Climbing Chicago Center
09:42PM 40.1361 -87.8564 178° South 449 517 32,000 240 Climbing Chicago Center
09:43PM 40.0325 -87.8533 179° South 454 522 32,000  Level Indianapolis Center
09:44PM 39.9086 -87.8461 177° South 451 519 32,000  Level Indianapolis Center
09:45PM 39.7828 -87.8422 179° South 452 520 32,000 780 Level Indianapolis Center
09:46PM 39.6606 -87.8364 178° South 446 513 33,600 1,200 Climbing Indianapolis Center
09:47PM 39.5394 -87.8303 178° South 440 506 34,500 660 Climbing Indianapolis Center
09:48PM 39.4183 -87.8264 179° South 437 503 35,000 240 Climbing Indianapolis Center
09:49PM 39.2936 -87.8203 178° South 431 496 35,000  Level Indianapolis Center
09:50PM 39.1725 -87.8150 178° South 433 498 35,000  Level Indianapolis Center
09:51PM 39.0278 -87.8086 178° South 430 495 35,000  Level Indianapolis Center
09:52PM 38.9089 -87.8039 178° South 429 494 35,000  Level Indianapolis Center
09:53PM 38.7914 -87.7986 178° South 424 488 35,000  Level Indianapolis Center
09:54PM 38.6736 -87.7942 178° South 423 487 35,000  Level Indianapolis Center
09:55PM 38.5578 -87.7900 178° South 419 482 35,000  Level Indianapolis Center
09:56PM 38.4414 -87.7836 178° South 419 482 35,000  Level Indianapolis Center
09:58PM 38.3261 -87.7800 179° South 416 479 35,000  Level Indianapolis Center
09:59PM 38.2119 -87.7750 178° South 413 475 35,000  Level Indianapolis Center
10:00PM 38.0978 -87.7703 178° South 411 473 35,000  Level Indianapolis Center
10:01PM 37.9836 -87.7636 177° South 410 472 35,000  Level Indianapolis Center
10:02PM 37.8736 -87.7289 166° South 409 471 35,000  Level Indianapolis Center
10:03PM 37.7575 -87.6572 154° Southeast 408 470 35,000  Level Indianapolis Center
10:04PM 37.6556 -87.5953 154° Southeast 403 464 35,000  Level Indianapolis Center
10:05PM 37.5547 -87.5322 154° Southeast 400 460 35,000  Level Indianapolis Center
10:06PM 37.4544 -87.4744 155° Southeast 395 455 35,000  Level Indianapolis Center
10:07PM 37.3547 -87.4142 154° Southeast 395 455 35,000  Level Indianapolis Center
10:08PM 37.2544 -87.3536 154° Southeast 395 455 35,000  Level Indianapolis Center
10:09PM 37.1525 -87.2922 154° Southeast 401 461 35,000  Level Indianapolis Center
10:09PM 37.0783 -87.2472 154° Southeast 392 451 35,000  Level Memphis Center
10:10PM 36.9747 -87.1836 154° Southeast 406 467 35,000 -60 Level Memphis Center
10:11PM 36.8731 -87.1228 154° Southeast 406 467 34,900 -60 Descending Memphis Center
10:12PM 36.7756 -87.0647 154° Southeast 396 456 34,900  Level Memphis Center
10:13PM 36.6739 -87.0042 154° Southeast 396 456 34,900  Level Memphis Center
10:14PM 36.5764 -86.9461 154° Southeast 388 447 35,000  Climbing Memphis Center
10:15PM 36.4831 -86.8883 154° Southeast 381 438 35,000  Level Memphis Center
10:16PM 36.3858 -86.8356 156° South 389 448 35,000  Level Memphis Center
10:17PM 36.2922 -86.7753 153° Southeast 396 456 35,000  Level Memphis Center
10:18PM 36.1864 -86.7131 155° Southeast 391 450 35,000 -60 Level Memphis Center
10:19PM 36.0908 -86.6608 156° South 386 444 34,900  Descending Memphis Center
10:20PM 35.9917 -86.6142 159° South 381 438 35,000  Climbing Memphis Center
10:22PM 35.8161 -86.5253 158° South 389 448 35,000  Level Atlanta Center
10:23PM 35.7172 -86.4764 158° South 389 448 35,000  Level Atlanta Center
10:24PM 35.6222 -86.4275 157° South 384 442 35,000  Level Atlanta Center
10:25PM 35.5331 -86.3867 160° South 379 436 35,000  Level Atlanta Center
10:26PM 35.4381 -86.3381 157° South 374 430 35,000  Level Atlanta Center
10:27PM 35.3408 -86.2919 159° South 369 425 35,000  Level Atlanta Center
10:28PM 35.2458 -86.2411 156° South 369 425 35,000  Level Atlanta Center
10:29PM 35.1528 -86.1981 159° South 364 419 35,000  Level Atlanta Center
10:30PM 35.0492 -86.1497 159° South 359 413 35,000  Level Atlanta Center
10:31PM 34.9581 -86.1067 159° South 371 427 35,000  Level Atlanta Center
10:32PM 34.8631 -86.0564 157° South 377 434 35,000  Level Atlanta Center
10:33PM 34.7656 -86.0111 159° South 372 428 35,000 -60 Level Atlanta Center
10:34PM 34.6744 -85.9658 158° South 367 422 34,900  Descending Atlanta Center
10:35PM 34.5750 -85.9183 159° South 372 428 35,000  Climbing Atlanta Center
10:36PM 34.4778 -85.8733 159° South 372 428 35,000  Level Atlanta Center
10:37PM 34.3803 -85.8258 158° South 372 428 35,000  Level Atlanta Center
10:38PM 34.2744 -85.7808 161° South 363 418 35,000  Level Atlanta Center
10:39PM 34.1750 -85.7336 159° South 373 429 35,000  Level Atlanta Center
10:40PM 34.0775 -85.6892 159° South 373 429 35,000  Level Atlanta Center
10:41PM 33.9800 -85.6419 158° South 373 429 35,000  Level Atlanta Center
10:42PM 33.8806 -85.5953 159° South 373 429 35,000  Level Atlanta Center
10:43PM 33.7789 -85.5483 159° South 379 436 35,000  Level Atlanta Center
10:44PM 33.6792 -85.5042 160° South 385 443 35,000  Level Atlanta Center
10:45PM 33.5775 -85.4550 158° South 385 443 35,000  Level Atlanta Center
10:46PM 33.4736 -85.4086 160° South 390 449 35,000  Level Atlanta Center
10:47PM 33.3781 -85.3647 159° South 381 438 35,000  Level Atlanta Center
10:48PM 33.2742 -85.3133 158° South 386 444 35,000  Level Atlanta Center
10:49PM 33.1744 -85.2672 159° South 386 444 35,000  Level Atlanta Center
10:50PM 33.0747 -85.2214 159° South 394 453 35,000  Level Atlanta Center
10:51PM 32.9811 -85.1806 160° South 394 453 35,000  Level Atlanta Center
10:52PM 32.8667 -85.1344 161° South 394 453 35,000  Level Atlanta Center
10:53PM 32.7731 -85.1086 167° South 389 448 35,000  Level Atlanta Center
10:54PM 32.6689 -85.0753 165° South 389 448 35,000  Level Atlanta Center
10:55PM 32.5608 -85.0369 163° South 390 449 35,000  Level Atlanta Center
10:56PM 32.4547 -85.0014 164° South 397 457 35,000  Level Atlanta Center
10:58PM 32.2836 -84.9469 165° South 398 458 35,000  Level Jacksonville Center
10:59PM 32.1775 -84.9103 164° South 398 458 35,000  Level Jacksonville Center
11:00PM 32.0717 -84.8736 164° South 398 458 35,000  Level Jacksonville Center
11:01PM 31.9658 -84.8394 165° South 398 458 35,000  Level Jacksonville Center
11:02PM 31.8475 -84.8003 164° South 398 458 35,000  Level Jacksonville Center
11:03PM 31.7414 -84.7664 165° South 398 458 35,000  Level Jacksonville Center
11:04PM 31.6292 -84.7300 165° South 398 458 35,000  Level Jacksonville Center
11:05PM 31.5192 -84.6936 164° South 403 464 35,000  Level Jacksonville Center
11:06PM 31.4047 -84.6547 164° South 414 476 35,000  Level Jacksonville Center
11:07PM 31.2944 -84.6189 164° South 414 476 35,000  Level Jacksonville Center
11:08PM 31.1844 -84.5828 164° South 414 476 35,000  Level Jacksonville Center
11:09PM 31.0744 -84.5372 160° South 414 476 35,000  Level Jacksonville Center
11:10PM 30.9708 -84.4747 153° Southeast 420 483 35,000  Level Jacksonville Center
11:11PM 30.8631 -84.4125 154° Southeast 426 490 35,000  Level Jacksonville Center
11:12PM 30.7572 -84.3503 153° Southeast 431 496 35,000  Level Jacksonville Center
11:13PM 30.6514 -84.2883 153° Southeast 426 490 35,000  Level Jacksonville Center
11:14PM 30.5478 -84.2264 153° Southeast 421 484 35,000 -60 Level Jacksonville Center
11:15PM 30.4564 -84.1697 152° Southeast 421 484 34,900 -60 Descending Jacksonville Center
11:16PM 30.3506 -84.1083 153° Southeast 416 479 34,900  Level Jacksonville Center
11:17PM 30.2447 -84.0467 153° Southeast 422 486 35,000  Climbing Jacksonville Center
11:18PM 30.1367 -83.9853 154° Southeast 422 486 34,900 -60 Descending Jacksonville Center
11:19PM 30.0306 -83.9242 153° Southeast 422 486 34,900  Level Jacksonville Center
11:20PM 29.9267 -83.8633 153° Southeast 422 486 34,900  Level Jacksonville Center
11:21PM 29.8228 -83.8047 154° Southeast 422 486 34,900  Level Jacksonville Center
11:22PM 29.7189 -83.7439 153° Southeast 422 486 34,900  Level Jacksonville Center
11:23PM 29.6128 -83.6833 154° Southeast 422 486 34,900  Level Jacksonville Center
11:24PM 29.5086 -83.6228 153° Southeast 422 486 34,900 -120 Level Jacksonville Center
11:25PM 29.4025 -83.5625 154° Southeast 422 486 34,700 -1,200 Descending Jacksonville Center
11:26PM 29.2983 -83.5022 153° Southeast 422 486 32,500 -2,340 Descending Jacksonville Center
11:27PM 29.1964 -83.4444 154° Southeast 416 479 30,100 -2,580 Descending Jacksonville Center
11:28PM 29.1050 -83.3678 144° Southeast 411 473 27,400 -2,940 Descending Jacksonville Center
11:29PM 29.0217 -83.2844 139° Southeast 406 467 24,300 -3,120 Descending Jacksonville Center
11:30PM 28.9425 -83.2011 137° Southeast 395 455 21,200 -2,640 Descending Jacksonville Center
11:31PM 28.8739 -83.1108 131° Southeast 379 436 19,100 -2,040 Descending Jacksonville Center
11:32PM 28.8072 -83.0275 132° Southeast 373 429 17,200 -1,800 Descending Jacksonville Center
11:34PM 28.6333 -82.8167 133° Southeast 344 396 12,900 -1,860 Descending Tampa TRACON
11:35PM 28.5833 -82.7500 130° Southeast 330 380 11,100 -1,560 Descending Tampa TRACON
11:36PM 28.5000 -82.7000 152° Southeast 305 351 10,000 -1,320 Descending Tampa TRACON
11:37PM 28.4167 -82.6667 161° South 285 328 8,200 -1,500 Descending Tampa TRACON
11:38PM 28.3500 -82.6333 156° South 279 321 6,600 -1,440 Descending Tampa TRACON
11:39PM 28.2667 -82.5833 152° Southeast 273 314 5,200 -1,200 Descending Tampa TRACON
11:40PM 28.2167 -82.5667 164° South 262 302 4,400 -900 Descending Tampa TRACON
11:41PM 28.1500 -82.5333 156° South 221 254 3,600 -1,080 Descending Tampa TRACON
11:42PM 28.1000 -82.5333 180° South 194 223 2,400 -1,200 Descending Tampa TRACON
11:43PM 28.0500 -82.5333 180° South 156 180 1,400 -1,020 Descending Tampa TRACON